createdAt,value
2022-12-04T00:01:15.612Z,92426.00
2022-12-04T00:04:00.494Z,92428.84
2022-12-04T00:06:43.467Z,92428.00
2022-12-04T00:09:26.373Z,92424.78
2022-12-04T00:12:09.405Z,92425.34
2022-12-04T00:15:24.025Z,92427.91
2022-12-04T00:17:56.528Z,92423.59
2022-12-04T00:20:40.339Z,92433.38
2022-12-04T00:23:23.268Z,92436.56
2022-12-04T00:26:07.799Z,92431.38
2022-12-04T00:28:50.804Z,92433.09
2022-12-04T00:31:35.368Z,92421.97
2022-12-04T00:34:18.598Z,92419.63
2022-12-04T00:37:01.443Z,92419.22
2022-12-04T00:39:44.649Z,92416.34
2022-12-04T00:42:27.553Z,92421.03
2022-12-04T00:45:11.020Z,92420.50
2022-12-04T00:47:55.312Z,92428.00
2022-12-04T00:50:38.801Z,92427.34
2022-12-04T00:53:22.371Z,92431.19
2022-12-04T00:56:06.786Z,92433.34
2022-12-04T00:58:52.249Z,92435.88
2022-12-04T01:01:35.163Z,92438.94
2022-12-04T01:04:19.431Z,92442.94
2022-12-04T01:07:05.135Z,92441.78
2022-12-04T01:09:48.374Z,92438.94
2022-12-04T01:12:31.330Z,92431.19
2022-12-04T01:15:14.355Z,92436.56
2022-12-04T01:17:57.417Z,92434.66
2022-12-04T01:20:42.051Z,92436.28
2022-12-04T01:23:24.929Z,92433.66
2022-12-04T01:26:08.117Z,92430.03
2022-12-04T01:28:50.989Z,92430.88
2022-12-04T01:31:34.414Z,92423.63
2022-12-04T01:34:17.293Z,92425.09
2022-12-04T01:37:01.494Z,92429.13
2022-12-04T01:39:44.357Z,92421.91
2022-12-04T01:42:28.119Z,92426.72
2022-12-04T01:45:35.639Z,92422.56
2022-12-04T01:48:27.559Z,92419.63
2022-12-04T01:51:17.829Z,92417.34
2022-12-04T01:54:06.069Z,92420.44
2022-12-04T01:56:53.605Z,92423.00
2022-12-04T01:59:41.120Z,92423.66
2022-12-04T02:02:28.550Z,92431.03
2022-12-04T02:05:14.769Z,92416.00
2022-12-04T02:08:01.423Z,92422.31
2022-12-04T02:10:56.669Z,92420.47
2022-12-04T02:13:46.971Z,92422.88
2022-12-04T02:16:37.875Z,92421.56
2022-12-04T02:19:43.906Z,92431.06
2022-12-04T02:22:42.676Z,92432.69
2022-12-04T02:25:31.106Z,92437.53
2022-12-04T02:28:24.381Z,92443.00
2022-12-04T02:31:13.399Z,92445.00
2022-12-04T02:34:02.566Z,92449.38
2022-12-04T02:36:51.933Z,92452.38
2022-12-04T02:39:41.275Z,92451.84
2022-12-04T02:42:34.046Z,92453.69
2022-12-04T02:45:22.760Z,92453.25
2022-12-04T02:48:08.718Z,92453.00
2022-12-04T02:50:57.190Z,92445.75
2022-12-04T02:53:45.936Z,92432.19
2022-12-04T02:56:33.341Z,92438.13
2022-12-04T02:59:20.266Z,92419.75
2022-12-04T03:02:10.546Z,92412.00
2022-12-04T03:04:57.376Z,92411.06
2022-12-04T03:07:45.975Z,92401.78
2022-12-04T03:10:33.885Z,92394.69
2022-12-04T03:13:21.396Z,92395.88
2022-12-04T03:16:11.432Z,92396.53
2022-12-04T03:19:00.016Z,92393.47
2022-12-04T03:21:48.970Z,92394.66
2022-12-04T03:24:35.501Z,92394.13
2022-12-04T03:27:27.144Z,92390.34
2022-12-04T03:30:12.618Z,92385.94
2022-12-04T03:33:02.412Z,92382.72
2022-12-04T03:35:50.612Z,92387.00
2022-12-04T03:38:38.906Z,92387.25
2022-12-04T03:41:28.174Z,92387.25
2022-12-04T03:44:17.232Z,92380.28
2022-12-04T03:47:05.230Z,92383.00
2022-12-04T03:49:55.016Z,92383.53
2022-12-04T03:52:49.669Z,92381.13
2022-12-04T03:55:39.937Z,92378.03
2022-12-04T03:58:28.273Z,92374.56
2022-12-04T04:01:14.389Z,92376.88
2022-12-04T04:04:01.020Z,92357.94
2022-12-04T04:06:49.967Z,92374.06
2022-12-04T04:09:38.313Z,92354.88
2022-12-04T04:12:23.584Z,92359.16
2022-12-04T04:15:28.547Z,92366.97
2022-12-04T04:18:28.732Z,92360.66
2022-12-04T04:21:31.682Z,92365.88
2022-12-04T04:24:28.972Z,92358.91
2022-12-04T04:27:13.591Z,92352.06
2022-12-04T04:29:56.535Z,92347.88
2022-12-04T04:32:43.902Z,92353.41
2022-12-04T04:35:38.185Z,92353.81
2022-12-04T04:38:27.263Z,92355.41
2022-12-04T04:41:17.267Z,92354.75
2022-12-04T04:44:10.753Z,92361.88
2022-12-04T04:46:58.668Z,92366.81
2022-12-04T04:49:43.173Z,92360.38
2022-12-04T04:52:26.528Z,92379.56
2022-12-04T04:55:10.534Z,92384.44
2022-12-04T04:57:53.374Z,92381.31
2022-12-04T05:00:38.451Z,92377.69
2022-12-04T05:03:21.308Z,92382.13
2022-12-04T05:06:04.660Z,92387.50
2022-12-04T05:08:49.283Z,92377.97
2022-12-04T05:11:31.962Z,92377.69
2022-12-04T05:14:14.810Z,92379.41
2022-12-04T05:17:01.844Z,92376.19
2022-12-04T05:19:57.885Z,92383.59
2022-12-04T05:22:40.940Z,92384.41
2022-12-04T05:25:23.834Z,92381.19
2022-12-04T05:28:06.909Z,92379.97
2022-12-04T05:30:56.103Z,92383.72
2022-12-04T05:33:40.396Z,92380.25
2022-12-04T05:36:23.261Z,92375.66
2022-12-04T05:39:06.167Z,92371.31
2022-12-04T05:41:49.050Z,92364.16
2022-12-04T05:44:31.908Z,92368.72
2022-12-04T05:47:14.749Z,92363.78
2022-12-04T05:49:59.150Z,92362.59
2022-12-04T05:52:42.041Z,92364.16
2022-12-04T05:55:24.851Z,92368.91
2022-12-04T05:58:07.786Z,92364.34
2022-12-04T06:00:50.681Z,92369.59
2022-12-04T06:03:33.592Z,92371.47
2022-12-04T06:06:22.284Z,92380.34
2022-12-04T06:09:06.950Z,92379.66
2022-12-04T06:11:49.781Z,92375.22
2022-12-04T06:14:39.157Z,92386.09
2022-12-04T06:17:22.556Z,92392.31
2022-12-04T06:20:11.230Z,92386.09
2022-12-04T06:22:56.059Z,92395.47
2022-12-04T06:25:38.941Z,92384.63
2022-12-04T06:28:21.808Z,92401.84
2022-12-04T06:31:06.215Z,92401.16
2022-12-04T06:33:49.521Z,92401.03
2022-12-04T06:36:32.612Z,92402.13
2022-12-04T06:39:18.987Z,92400.50
2022-12-04T06:42:02.028Z,92395.41
2022-12-04T06:44:44.951Z,92395.94
2022-12-04T06:47:27.798Z,92402.91
2022-12-04T06:50:11.229Z,92403.47
2022-12-04T06:52:54.057Z,92403.97
2022-12-04T06:55:38.268Z,92396.28
2022-12-04T06:58:21.105Z,92404.75
2022-12-04T07:01:08.209Z,92403.13
2022-12-04T07:03:52.036Z,92400.75
2022-12-04T07:06:36.569Z,92395.88
2022-12-04T07:09:19.820Z,92388.38
2022-12-04T07:12:04.010Z,92391.97
2022-12-04T07:14:46.862Z,92398.00
2022-12-04T07:17:29.755Z,92390.06
2022-12-04T07:20:13.571Z,92395.72
2022-12-04T07:22:56.548Z,92395.47
2022-12-04T07:25:40.971Z,92396.56
2022-12-04T07:28:25.169Z,92396.41
2022-12-04T07:31:09.389Z,92399.63
2022-12-04T07:33:53.957Z,92398.94
2022-12-04T07:36:36.890Z,92393.69
2022-12-04T07:39:19.743Z,92395.56
2022-12-04T07:42:02.692Z,92398.09
2022-12-04T07:44:48.622Z,92385.44
2022-12-04T07:47:31.457Z,92396.50
2022-12-04T07:50:14.311Z,92380.31
2022-12-04T07:52:57.141Z,92377.44
2022-12-04T07:55:40.150Z,92373.22
2022-12-04T07:58:22.952Z,92375.84
2022-12-04T08:01:09.122Z,92368.72
2022-12-04T08:03:53.501Z,92368.94
2022-12-04T08:06:36.442Z,92371.84
2022-12-04T08:09:19.285Z,92362.38
2022-12-04T08:12:02.082Z,92373.50
2022-12-04T08:14:44.969Z,92366.16
2022-12-04T08:17:29.431Z,92367.31
2022-12-04T08:20:13.205Z,92371.59
2022-12-04T08:22:56.067Z,92378.25
2022-12-04T08:25:40.231Z,92384.53
2022-12-04T08:28:23.070Z,92380.78
2022-12-04T08:31:07.472Z,92380.19
2022-12-04T08:33:53.434Z,92384.69
2022-12-04T08:36:36.609Z,92383.63
2022-12-04T08:39:19.552Z,92378.41
2022-12-04T08:42:02.389Z,92388.25
2022-12-04T08:44:45.232Z,92390.03
2022-12-04T08:47:28.044Z,92402.25
2022-12-04T08:50:12.848Z,92394.00
2022-12-04T08:52:55.707Z,92400.41
2022-12-04T08:55:38.580Z,92398.19
2022-12-04T08:58:21.431Z,92403.69
2022-12-04T09:01:08.403Z,92398.09
2022-12-04T09:03:51.289Z,92411.25
2022-12-04T09:06:35.484Z,92402.00
2022-12-04T09:09:18.342Z,92395.13
2022-12-04T09:12:01.178Z,92402.88
2022-12-04T09:14:43.993Z,92400.69
2022-12-04T09:17:26.859Z,92401.06
2022-12-04T09:20:10.803Z,92398.38
2022-12-04T09:23:04.145Z,92399.03
2022-12-04T09:25:47.766Z,92400.19
2022-12-04T09:28:30.622Z,92394.28
2022-12-04T09:31:13.810Z,92399.22
2022-12-04T09:33:59.050Z,92397.34
2022-12-04T09:36:41.890Z,92396.69
2022-12-04T09:39:26.314Z,92388.53
2022-12-04T09:42:24.931Z,92388.38
2022-12-04T09:45:13.018Z,92377.13
2022-12-04T09:47:59.043Z,92381.63
2022-12-04T09:50:44.475Z,92376.13
2022-12-04T09:53:30.930Z,92370.34
2022-12-04T09:56:19.824Z,92362.81
2022-12-04T09:59:12.544Z,92365.84
2022-12-04T10:01:59.855Z,92361.84
2022-12-04T10:04:42.754Z,92355.72
2022-12-04T10:07:29.967Z,92362.13
2022-12-04T10:10:20.442Z,92358.91
2022-12-04T10:13:16.533Z,92357.25
2022-12-04T10:16:11.058Z,92355.66
2022-12-04T10:19:04.285Z,92350.69
2022-12-04T10:22:01.258Z,92357.78
2022-12-04T10:24:49.119Z,92360.84
2022-12-04T10:27:35.618Z,92358.91
2022-12-04T10:30:23.823Z,92361.81
2022-12-04T10:33:17.758Z,92349.59
2022-12-04T10:36:02.488Z,92342.88
2022-12-04T10:38:47.307Z,92341.91
2022-12-04T10:41:37.499Z,92341.78
2022-12-04T10:44:21.871Z,92331.34
2022-12-04T10:47:06.499Z,92338.22
2022-12-04T10:49:49.278Z,92335.66
2022-12-04T10:52:32.185Z,92328.91
2022-12-04T10:55:15.878Z,92317.22
2022-12-04T10:57:58.863Z,92325.25
2022-12-04T11:00:41.752Z,92318.81
2022-12-04T11:03:29.414Z,92322.66
2022-12-04T11:06:15.118Z,92323.25
2022-12-04T11:08:59.505Z,92311.03
2022-12-04T11:11:42.413Z,92303.78
2022-12-04T11:14:25.526Z,92293.69
2022-12-04T11:17:08.548Z,92291.59
2022-12-04T11:20:00.756Z,92295.28
2022-12-04T11:22:52.353Z,92294.75
2022-12-04T11:25:39.501Z,92282.50
2022-12-04T11:28:41.335Z,92286.34
2022-12-04T11:31:25.576Z,92275.69
2022-12-04T11:34:10.873Z,92273.72
2022-12-04T11:36:57.591Z,92276.56
2022-12-04T11:39:42.303Z,92272.69
2022-12-04T11:42:25.548Z,92269.31
2022-12-04T11:45:21.926Z,92269.78
2022-12-04T11:48:14.127Z,92261.88
2022-12-04T11:51:08.533Z,92263.81
2022-12-04T11:54:00.245Z,92265.59
2022-12-04T11:56:48.189Z,92255.47
2022-12-04T11:59:49.725Z,92253.59
2022-12-04T12:02:45.389Z,92254.22
2022-12-04T12:06:00.280Z,92258.91
2022-12-04T12:08:59.443Z,92248.91
2022-12-04T12:11:50.586Z,92243.75
2022-12-04T12:14:41.081Z,92249.28
2022-12-04T12:17:33.377Z,92253.91
2022-12-04T12:20:22.566Z,92237.88
2022-12-04T12:23:22.393Z,92234.44
2022-12-04T12:26:12.383Z,92244.41
2022-12-04T12:29:22.651Z,92244.41
2022-12-04T12:32:25.978Z,92245.50
2022-12-04T12:35:21.263Z,92242.16
2022-12-04T12:38:07.787Z,92239.59
2022-12-04T12:40:56.651Z,92244.28
2022-12-04T12:43:42.192Z,92246.19
2022-12-04T12:46:32.404Z,92241.88
2022-12-04T12:49:21.242Z,92238.81
2022-12-04T12:52:08.416Z,92236.84
2022-12-04T12:54:57.291Z,92251.47
2022-12-04T12:57:44.062Z,92245.03
2022-12-04T13:00:31.425Z,92232.31
2022-12-04T13:03:27.140Z,92232.50
2022-12-04T13:06:15.672Z,92232.44
2022-12-04T13:09:07.360Z,92231.00
2022-12-04T13:11:52.631Z,92230.84
2022-12-04T13:14:35.636Z,92231.22
2022-12-04T13:17:26.599Z,92222.75
2022-12-04T13:20:18.173Z,92229.06
2022-12-04T13:23:16.096Z,92227.47
2022-12-04T13:26:07.755Z,92222.03
2022-12-04T13:28:58.469Z,92228.25
2022-12-04T13:31:53.132Z,92225.88
2022-12-04T13:34:50.144Z,92222.91
2022-12-04T13:37:49.481Z,92223.38
2022-12-04T13:40:36.873Z,92220.69
2022-12-04T13:43:26.773Z,92213.28
2022-12-04T13:46:26.806Z,92198.88
2022-12-04T13:49:25.126Z,92208.53
2022-12-04T13:52:23.509Z,92210.44
2022-12-04T13:55:23.868Z,92208.22
2022-12-04T13:58:27.351Z,92207.38
2022-12-04T14:01:26.387Z,92207.88
2022-12-04T14:04:23.571Z,92209.53
2022-12-04T14:07:06.607Z,92202.28
2022-12-04T14:09:54.389Z,92202.47
2022-12-04T14:12:40.729Z,92200.03
2022-12-04T14:15:26.280Z,92189.66
2022-12-04T14:18:21.928Z,92179.38
2022-12-04T14:21:06.772Z,92179.06
2022-12-04T14:23:51.122Z,92175.22
2022-12-04T14:27:03.569Z,92183.75
2022-12-04T14:29:47.242Z,92185.81
2022-12-04T14:32:34.693Z,92187.44
2022-12-04T14:35:21.280Z,92177.50
2022-12-04T14:38:06.871Z,92177.69
2022-12-04T14:40:52.508Z,92173.19
2022-12-04T14:43:41.072Z,92174.00
2022-12-04T14:46:29.261Z,92165.19
2022-12-04T14:49:24.699Z,92157.47
2022-12-04T14:52:16.072Z,92161.81
2022-12-04T14:55:08.076Z,92147.53
2022-12-04T14:57:56.546Z,92139.22
2022-12-04T15:00:51.298Z,92135.66
2022-12-04T15:03:37.978Z,92130.88
2022-12-04T15:06:25.465Z,92127.19
2022-12-04T15:09:36.035Z,92133.44
2022-12-04T15:12:36.440Z,92122.84
2022-12-04T15:15:25.128Z,92120.47
2022-12-04T15:18:15.804Z,92120.47
2022-12-04T15:21:01.453Z,92119.97
2022-12-04T15:23:44.737Z,92126.03
2022-12-04T15:26:28.272Z,92133.13
2022-12-04T15:29:18.802Z,92143.06
2022-12-04T15:32:05.488Z,92143.72
2022-12-04T15:34:54.417Z,92148.06
2022-12-04T15:37:37.868Z,92153.97
2022-12-04T15:40:23.154Z,92153.81
2022-12-04T15:43:17.304Z,92166.63
2022-12-04T15:46:00.689Z,92159.75
2022-12-04T15:48:47.719Z,92162.78
2022-12-04T15:51:32.564Z,92160.34
2022-12-04T15:54:22.280Z,92163.88
2022-12-04T15:57:07.771Z,92158.44
2022-12-04T15:59:51.823Z,92161.50
2022-12-04T16:02:40.623Z,92153.78
2022-12-04T16:05:35.481Z,92157.94
2022-12-04T16:08:26.828Z,92161.16
2022-12-04T16:11:28.514Z,92165.00
2022-12-04T16:14:19.177Z,92173.19
2022-12-04T16:17:06.287Z,92170.44
2022-12-04T16:19:49.569Z,92173.50
2022-12-04T16:22:32.562Z,92169.16
2022-12-04T16:25:17.891Z,92168.19
2022-12-04T16:28:01.697Z,92179.88
2022-12-04T16:30:44.637Z,92181.50
2022-12-04T16:33:27.511Z,92177.50
2022-12-04T16:36:11.649Z,92179.44
2022-12-04T16:38:54.489Z,92181.50
2022-12-04T16:41:38.769Z,92186.13
2022-12-04T16:44:21.631Z,92194.16
2022-12-04T16:47:04.630Z,92183.56
2022-12-04T16:49:50.259Z,92190.66
2022-12-04T16:52:33.123Z,92193.03
2022-12-04T16:55:20.560Z,92202.00
2022-12-04T16:58:05.418Z,92202.47
2022-12-04T17:00:54.433Z,92200.72
2022-12-04T17:03:37.382Z,92203.13
2022-12-04T17:06:20.390Z,92201.69
2022-12-04T17:09:03.244Z,92206.78
2022-12-04T17:11:46.667Z,92202.28
2022-12-04T17:14:30.908Z,92212.06
2022-12-04T17:17:13.771Z,92210.44
2022-12-04T17:19:56.613Z,92197.31
2022-12-04T17:22:39.554Z,92203.66
2022-12-04T17:25:22.478Z,92199.19
2022-12-04T17:28:05.607Z,92200.13
2022-12-04T17:30:49.835Z,92197.41
2022-12-04T17:33:33.302Z,92192.63
2022-12-04T17:36:18.970Z,92206.09
2022-12-04T17:39:02.594Z,92219.03
2022-12-04T17:41:45.473Z,92220.47
2022-12-04T17:44:28.426Z,92226.41
2022-12-04T17:47:13.295Z,92235.66
2022-12-04T17:49:56.158Z,92231.94
2022-12-04T17:52:39.060Z,92228.09
2022-12-04T17:55:21.928Z,92221.66
2022-12-04T17:58:04.798Z,92221.34
2022-12-04T18:00:47.714Z,92219.63
2022-12-04T18:03:32.112Z,92226.19
2022-12-04T18:06:17.753Z,92213.38
2022-12-04T18:09:00.659Z,92211.59
2022-12-04T18:11:45.896Z,92210.63
2022-12-04T18:14:29.863Z,92215.31
2022-12-04T18:17:12.703Z,92223.31
2022-12-04T18:20:02.673Z,92215.47
2022-12-04T18:22:47.324Z,92217.56
2022-12-04T18:25:30.194Z,92227.66
2022-12-04T18:28:13.052Z,92225.59
2022-12-04T18:30:55.953Z,92223.03
2022-12-04T18:33:40.687Z,92224.16
2022-12-04T18:36:26.162Z,92231.47
2022-12-04T18:39:09.841Z,92232.59
2022-12-04T18:41:55.978Z,92238.50
2022-12-04T18:44:38.902Z,92234.97
2022-12-04T18:47:21.733Z,92228.91
2022-12-04T18:50:04.746Z,92230.28
2022-12-04T18:52:54.955Z,92222.75
2022-12-04T18:55:40.722Z,92225.09
2022-12-04T18:58:23.874Z,92229.91
2022-12-04T19:01:07.683Z,92231.22
2022-12-04T19:03:50.607Z,92224.13
2022-12-04T19:06:35.609Z,92221.09
2022-12-04T19:09:35.393Z,92226.22
2022-12-04T19:12:25.235Z,92228.41
2022-12-04T19:15:08.794Z,92224.88
2022-12-04T19:17:51.671Z,92227.44
2022-12-04T19:20:34.526Z,92228.38
2022-12-04T19:23:17.426Z,92231.59
2022-12-04T19:26:02.546Z,92243.56
2022-12-04T19:28:45.435Z,92245.34
2022-12-04T19:31:30.014Z,92241.34
2022-12-04T19:34:12.905Z,92240.81
2022-12-04T19:36:56.037Z,92248.66
2022-12-04T19:39:39.077Z,92244.31
2022-12-04T19:42:23.358Z,92248.16
2022-12-04T19:45:06.929Z,92250.81
2022-12-04T19:47:49.789Z,92250.28
2022-12-04T19:50:33.610Z,92261.34
2022-12-04T19:53:16.693Z,92259.16
2022-12-04T19:56:03.586Z,92262.44
2022-12-04T19:58:48.441Z,92272.38
2022-12-04T20:01:32.386Z,92273.47
2022-12-04T20:04:15.627Z,92268.53
2022-12-04T20:06:58.755Z,92277.78
2022-12-04T20:09:42.526Z,92279.34
2022-12-04T20:12:27.859Z,92277.22
2022-12-04T20:15:12.175Z,92272.69
2022-12-04T20:17:55.114Z,92279.56
2022-12-04T20:20:37.988Z,92281.59
2022-12-04T20:23:20.844Z,92277.22
2022-12-04T20:26:05.067Z,92277.38
2022-12-04T20:28:48.244Z,92279.00
2022-12-04T20:31:34.946Z,92284.38
2022-12-04T20:34:19.738Z,92286.63
2022-12-04T20:37:02.581Z,92280.28
2022-12-04T20:39:45.555Z,92286.34
2022-12-04T20:42:33.278Z,92289.28
2022-12-04T20:45:16.617Z,92283.78
2022-12-04T20:48:00.820Z,92283.00
2022-12-04T20:50:45.989Z,92282.91
2022-12-04T20:53:30.245Z,92279.13
2022-12-04T20:56:13.116Z,92282.91
2022-12-04T20:58:57.545Z,92279.56
2022-12-04T21:01:40.833Z,92266.97
2022-12-04T21:04:25.254Z,92277.13
2022-12-04T21:07:08.388Z,92277.50
2022-12-04T21:09:51.301Z,92276.28
2022-12-04T21:12:52.259Z,92280.16
2022-12-04T21:15:54.118Z,92278.41
2022-12-04T21:18:37.840Z,92282.84
2022-12-04T21:21:22.191Z,92278.03
2022-12-04T21:24:06.335Z,92291.75
2022-12-04T21:26:49.528Z,92292.69
2022-12-04T21:29:32.581Z,92295.13
2022-12-04T21:32:15.501Z,92304.41
2022-12-04T21:34:58.428Z,92312.75
2022-12-04T21:37:42.656Z,92313.53
2022-12-04T21:40:25.485Z,92312.88
2022-12-04T21:43:08.352Z,92310.47
2022-12-04T21:45:58.141Z,92310.91
2022-12-04T21:48:41.147Z,92311.47
2022-12-04T21:51:48.726Z,92315.13
2022-12-04T21:54:28.817Z,92320.66
2022-12-04T21:57:12.029Z,92331.03
2022-12-04T21:59:55.230Z,92342.06
2022-12-04T22:02:39.952Z,92337.75
2022-12-04T22:05:22.708Z,92335.97
2022-12-04T22:08:07.121Z,92342.72
2022-12-04T22:10:51.367Z,92350.53
2022-12-04T22:13:34.601Z,92343.66
2022-12-04T22:16:19.831Z,92344.63
2022-12-04T22:19:02.741Z,92343.97
2022-12-04T22:21:45.644Z,92347.47
2022-12-04T22:24:28.557Z,92354.47
2022-12-04T22:27:14.971Z,92349.63
2022-12-04T22:29:57.868Z,92361.63
2022-12-04T22:32:40.800Z,92356.13
2022-12-04T22:35:23.909Z,92350.50
2022-12-04T22:38:06.783Z,92355.19
2022-12-04T22:40:49.862Z,92361.78
2022-12-04T22:43:40.550Z,92353.75
2022-12-04T22:46:23.860Z,92358.47
2022-12-04T22:49:07.291Z,92354.88
2022-12-04T22:51:50.149Z,92359.88
2022-12-04T22:54:33.122Z,92367.03
2022-12-04T22:57:16.456Z,92366.78
2022-12-04T23:00:00.648Z,92372.28
2022-12-04T23:02:43.579Z,92374.16
2022-12-04T23:05:26.564Z,92358.19
2022-12-04T23:08:10.009Z,92371.06
2022-12-04T23:10:52.971Z,92373.09
2022-12-04T23:13:36.316Z,92371.09
2022-12-04T23:16:21.203Z,92362.25
2022-12-04T23:19:05.311Z,92374.47
2022-12-04T23:21:53.555Z,92378.38
2022-12-04T23:24:41.370Z,92381.72
2022-12-04T23:27:24.053Z,92390.63
2022-12-04T23:30:08.245Z,92392.06
2022-12-04T23:32:52.656Z,92394.34
2022-12-04T23:35:35.480Z,92395.97
2022-12-04T23:38:18.497Z,92405.88
2022-12-04T23:41:02.105Z,92413.78
2022-12-04T23:43:45.811Z,92411.75
2022-12-04T23:46:32.289Z,92411.47
2022-12-04T23:49:16.631Z,92418.31
2022-12-04T23:51:59.498Z,92413.31
2022-12-04T23:54:42.360Z,92415.69
2022-12-04T23:57:25.206Z,92420.25
